Dunkerton, IA

7:38 AM CST on February 11, 2016 (GMT -0600)
Tagtow Weather Station | | Change Station
CLOSE
Current Station
Personal Weather Station
Location: Waterloo, IA
Elevation: 879 ft
Nearby Weather Stations

Elev 879 ft 42.50 °N, 92.23 °W | Updated 14 minutes ago

Partly Cloudy
Partly Cloudy
-1.8 °F
Feels Like -2 °F
N
1.7
Wind Variable Wind from NW

Today
High -- | Low -- °F
--% Chance of Precip.
Yesterday
High -- | Low -- °F
Precip. -- in
Pressure 30.40 in
Visibility 10.0 miles
Clouds Clear
Windchill -2 °F
Dew Point -5 °F
Humidity 84%
Rainfall 0.00 in
Snow Depth Not available.
7:11 AM 5:34 PM
Waxing Crescent, 12% visible
METAR KALO 111254Z 33004KT 10SM CLR M19/M22 A3033 RMK AO2 SLP293 T11941222
Pressure 30.40 in
Visibility 10.0 miles
Clouds Clear
Windchill -2 °F
Dew Point -5 °F
Humidity 84%
Rainfall 0.00 in
Snow Depth Not available.
7:11 AM 5:34 PM
Waxing Crescent, 12% visible
METAR KALO 111254Z 33004KT 10SM CLR M19/M22 A3033 RMK AO2 SLP293 T11941222

10-Day Weather Forecast

Almanac

Astronomy

Feb. 11, 2016 Rise Set
Actual Time
Civil Twilight
Nautical Twilight
Astronomical Twilight
Moon
Length of Visible Light
Length of Day
Tomorrow will be .
, % of the Moon is Illuminated

Today's Extremes

State Highs State Lows

Community

WunderPhotos

Upload Photos

1,892,045 photos uploaded!

WunderBlog® & News

Nearby

Air Quality

  Air Quality AQ Index Pollutant
Not available.

Snow Depth

Station Depth Elevation

Earthquake Activity

City Distance Mag. Time & Date
Minimum magnitude displayed is 2.5.

Coastal Water Temperatures

Place Temperature

Stations

Nearby Weather Stations

Station Location Temp. Windchill Dew Point Humidity Wind Precip. Elev Updated Type
                   

Watches & Warnings

There are currently no watches in effect.